sensor_id;sensor_type;location;lat;lon;timestamp;temperature;humidity
78184;DHT22;67442;44.570;18.610;2023-02-28T00:01:38;1.70;98.60
78184;DHT22;67442;44.570;18.610;2023-02-28T00:04:09;1.70;98.70
78184;DHT22;67442;44.570;18.610;2023-02-28T00:06:36;1.70;98.50
78184;DHT22;67442;44.570;18.610;2023-02-28T00:09:04;1.70;98.50
78184;DHT22;67442;44.570;18.610;2023-02-28T00:11:31;1.70;98.50
78184;DHT22;67442;44.570;18.610;2023-02-28T00:13:59;1.70;98.60
78184;DHT22;67442;44.570;18.610;2023-02-28T00:16:26;1.70;98.70
78184;DHT22;67442;44.570;18.610;2023-02-28T00:18:53;1.70;98.60
78184;DHT22;67442;44.570;18.610;2023-02-28T00:21:20;1.70;98.70
78184;DHT22;67442;44.570;18.610;2023-02-28T00:23:48;1.70;98.40
78184;DHT22;67442;44.570;18.610;2023-02-28T00:26:15;1.70;98.50
78184;DHT22;67442;44.570;18.610;2023-02-28T00:28:42;1.70;98.50
78184;DHT22;67442;44.570;18.610;2023-02-28T00:31:09;1.60;98.40
78184;DHT22;67442;44.570;18.610;2023-02-28T00:33:36;1.60;98.50
78184;DHT22;67442;44.570;18.610;2023-02-28T00:36:07;1.60;98.70
78184;DHT22;67442;44.570;18.610;2023-02-28T00:38:35;1.60;98.50
78184;DHT22;67442;44.570;18.610;2023-02-28T00:41:07;1.60;98.60
78184;DHT22;67442;44.570;18.610;2023-02-28T00:43:35;1.60;98.60
78184;DHT22;67442;44.570;18.610;2023-02-28T00:46:02;1.60;98.50
78184;DHT22;67442;44.570;18.610;2023-02-28T00:48:30;1.60;98.50
78184;DHT22;67442;44.570;18.610;2023-02-28T00:51:01;1.70;98.40
78184;DHT22;67442;44.570;18.610;2023-02-28T00:53:28;1.70;98.30
78184;DHT22;67442;44.570;18.610;2023-02-28T00:55:59;1.60;98.50
78184;DHT22;67442;44.570;18.610;2023-02-28T00:58:26;1.60;98.60
78184;DHT22;67442;44.570;18.610;2023-02-28T01:00:53;1.60;98.40
78184;DHT22;67442;44.570;18.610;2023-02-28T01:03:21;1.60;98.60
78184;DHT22;67442;44.570;18.610;2023-02-28T01:05:52;1.70;98.70
78184;DHT22;67442;44.570;18.610;2023-02-28T01:08:19;1.60;98.60
78184;DHT22;67442;44.570;18.610;2023-02-28T01:10:51;1.70;98.70
78184;DHT22;67442;44.570;18.610;2023-02-28T01:13:18;1.70;98.60
78184;DHT22;67442;44.570;18.610;2023-02-28T01:15:53;1.60;98.40
78184;DHT22;67442;44.570;18.610;2023-02-28T01:18:21;1.60;98.30
78184;DHT22;67442;44.570;18.610;2023-02-28T01:20:48;1.60;98.30
78184;DHT22;67442;44.570;18.610;2023-02-28T01:23:16;1.60;98.40
78184;DHT22;67442;44.570;18.610;2023-02-28T01:25:43;1.60;98.40
78184;DHT22;67442;44.570;18.610;2023-02-28T01:28:10;1.60;98.40
78184;DHT22;67442;44.570;18.610;2023-02-28T01:30:37;1.60;98.30
78184;DHT22;67442;44.570;18.610;2023-02-28T01:33:05;1.70;98.30
78184;DHT22;67442;44.570;18.610;2023-02-28T01:35:33;1.70;98.30
78184;DHT22;67442;44.570;18.610;2023-02-28T01:38:00;1.70;98.20
78184;DHT22;67442;44.570;18.610;2023-02-28T01:40:31;1.60;98.30
78184;DHT22;67442;44.570;18.610;2023-02-28T01:42:58;1.60;98.40
78184;DHT22;67442;44.570;18.610;2023-02-28T01:45:30;1.60;98.50
78184;DHT22;67442;44.570;18.610;2023-02-28T01:48:07;1.60;98.50
78184;DHT22;67442;44.570;18.610;2023-02-28T01:50:42;1.60;98.40
78184;DHT22;67442;44.570;18.610;2023-02-28T01:53:18;1.60;98.30
78184;DHT22;67442;44.570;18.610;2023-02-28T01:55:49;1.60;98.30
78184;DHT22;67442;44.570;18.610;2023-02-28T01:58:17;1.50;98.40
78184;DHT22;67442;44.570;18.610;2023-02-28T02:00:49;1.50;98.40
78184;DHT22;67442;44.570;18.610;2023-02-28T02:03:17;1.50;98.30
78184;DHT22;67442;44.570;18.610;2023-02-28T02:06:03;1.60;98.30
78184;DHT22;67442;44.570;18.610;2023-02-28T02:08:31;1.60;98.30
78184;DHT22;67442;44.570;18.610;2023-02-28T02:11:00;1.50;98.30
78184;DHT22;67442;44.570;18.610;2023-02-28T02:30:48;1.50;98.40
78184;DHT22;67442;44.570;18.610;2023-02-28T02:36:48;1.50;98.50
78184;DHT22;67442;44.570;18.610;2023-02-28T02:42:37;1.60;98.00
78184;DHT22;67442;44.570;18.610;2023-02-28T02:45:09;1.60;97.60
78184;DHT22;67442;44.570;18.610;2023-02-28T02:47:38;1.60;97.50
78184;DHT22;67442;44.570;18.610;2023-02-28T02:50:12;1.70;97.30
78184;DHT22;67442;44.570;18.610;2023-02-28T02:52:46;1.60;97.30
78184;DHT22;67442;44.570;18.610;2023-02-28T02:55:16;1.60;97.10
78184;DHT22;67442;44.570;18.610;2023-02-28T02:57:51;1.50;97.30
78184;DHT22;67442;44.570;18.610;2023-02-28T03:00:35;1.50;97.50
78184;DHT22;67442;44.570;18.610;2023-02-28T03:03:06;1.50;97.60
78184;DHT22;67442;44.570;18.610;2023-02-28T03:05:51;1.50;97.60
78184;DHT22;67442;44.570;18.610;2023-02-28T03:08:22;1.60;97.40
78184;DHT22;67442;44.570;18.610;2023-02-28T03:10:52;1.60;97.30
78184;DHT22;67442;44.570;18.610;2023-02-28T03:27:38;1.60;97.20
78184;DHT22;67442;44.570;18.610;2023-02-28T03:30:10;1.50;97.50
78184;DHT22;67442;44.570;18.610;2023-02-28T03:35:39;1.50;97.60
78184;DHT22;67442;44.570;18.610;2023-02-28T03:38:35;1.50;97.50
78184;DHT22;67442;44.570;18.610;2023-02-28T03:41:14;1.50;97.20
78184;DHT22;67442;44.570;18.610;2023-02-28T03:43:50;1.50;97.20
78184;DHT22;67442;44.570;18.610;2023-02-28T03:46:22;1.50;97.30
78184;DHT22;67442;44.570;18.610;2023-02-28T03:49:03;1.50;97.20
78184;DHT22;67442;44.570;18.610;2023-02-28T03:51:45;1.50;97.10
78184;DHT22;67442;44.570;18.610;2023-02-28T03:54:21;1.50;97.10
78184;DHT22;67442;44.570;18.610;2023-02-28T03:56:59;1.60;96.90
78184;DHT22;67442;44.570;18.610;2023-02-28T03:59:49;1.60;96.40
78184;DHT22;67442;44.570;18.610;2023-02-28T04:02:17;1.60;96.00
78184;DHT22;67442;44.570;18.610;2023-02-28T04:04:49;1.60;96.10
78184;DHT22;67442;44.570;18.610;2023-02-28T04:07:17;1.60;96.10
78184;DHT22;67442;44.570;18.610;2023-02-28T04:09:44;1.60;96.20
78184;DHT22;67442;44.570;18.610;2023-02-28T04:12:12;1.50;96.00
78184;DHT22;67442;44.570;18.610;2023-02-28T04:14:39;1.50;95.90
78184;DHT22;67442;44.570;18.610;2023-02-28T04:17:06;1.50;96.00
78184;DHT22;67442;44.570;18.610;2023-02-28T04:19:34;1.50;95.80
78184;DHT22;67442;44.570;18.610;2023-02-28T04:22:01;1.50;96.00
78184;DHT22;67442;44.570;18.610;2023-02-28T04:24:28;1.50;96.20
78184;DHT22;67442;44.570;18.610;2023-02-28T04:26:59;1.40;96.30
78184;DHT22;67442;44.570;18.610;2023-02-28T04:29:30;1.50;96.10
78184;DHT22;67442;44.570;18.610;2023-02-28T04:31:59;1.60;95.90
78184;DHT22;67442;44.570;18.610;2023-02-28T04:34:27;1.50;95.70
78184;DHT22;67442;44.570;18.610;2023-02-28T04:36:55;1.60;95.70
78184;DHT22;67442;44.570;18.610;2023-02-28T04:39:26;1.60;95.70
78184;DHT22;67442;44.570;18.610;2023-02-28T04:41:53;1.50;96.10
78184;DHT22;67442;44.570;18.610;2023-02-28T04:44:21;1.40;96.20
78184;DHT22;67442;44.570;18.610;2023-02-28T04:46:49;1.50;95.90
78184;DHT22;67442;44.570;18.610;2023-02-28T04:49:16;1.50;95.90
78184;DHT22;67442;44.570;18.610;2023-02-28T04:51:48;1.40;96.10
78184;DHT22;67442;44.570;18.610;2023-02-28T04:54:16;1.40;96.20
78184;DHT22;67442;44.570;18.610;2023-02-28T04:56:44;1.40;96.30
78184;DHT22;67442;44.570;18.610;2023-02-28T04:59:11;1.40;96.20
78184;DHT22;67442;44.570;18.610;2023-02-28T05:01:38;1.40;96.30
78184;DHT22;67442;44.570;18.610;2023-02-28T05:04:05;1.40;96.40
78184;DHT22;67442;44.570;18.610;2023-02-28T05:06:33;1.40;96.50
78184;DHT22;67442;44.570;18.610;2023-02-28T05:08:59;1.40;96.30
78184;DHT22;67442;44.570;18.610;2023-02-28T05:11:29;1.40;96.30
78184;DHT22;67442;44.570;18.610;2023-02-28T05:14:03;1.40;96.00
78184;DHT22;67442;44.570;18.610;2023-02-28T05:16:30;1.40;96.30
78184;DHT22;67442;44.570;18.610;2023-02-28T05:18:58;1.30;96.50
78184;DHT22;67442;44.570;18.610;2023-02-28T05:23:54;1.30;96.60
78184;DHT22;67442;44.570;18.610;2023-02-28T05:26:21;1.30;96.60
78184;DHT22;67442;44.570;18.610;2023-02-28T05:28:48;1.40;96.60
78184;DHT22;67442;44.570;18.610;2023-02-28T05:31:15;1.30;96.70
78184;DHT22;67442;44.570;18.610;2023-02-28T05:33:42;1.30;96.90
78184;DHT22;67442;44.570;18.610;2023-02-28T05:36:12;1.40;97.10
78184;DHT22;67442;44.570;18.610;2023-02-28T05:38:39;1.40;97.10
78184;DHT22;67442;44.570;18.610;2023-02-28T05:41:07;1.40;97.20
78184;DHT22;67442;44.570;18.610;2023-02-28T05:43:35;1.40;97.30
78184;DHT22;67442;44.570;18.610;2023-02-28T05:46:08;1.40;97.10
78184;DHT22;67442;44.570;18.610;2023-02-28T05:48:36;1.40;97.00
78184;DHT22;67442;44.570;18.610;2023-02-28T05:51:04;1.40;96.90
78184;DHT22;67442;44.570;18.610;2023-02-28T05:53:32;1.50;97.00
78184;DHT22;67442;44.570;18.610;2023-02-28T05:56:00;1.50;97.10
78184;DHT22;67442;44.570;18.610;2023-02-28T05:58:31;1.50;97.30
78184;DHT22;67442;44.570;18.610;2023-02-28T06:01:22;1.60;97.40
78184;DHT22;67442;44.570;18.610;2023-02-28T06:03:53;1.60;97.40
78184;DHT22;67442;44.570;18.610;2023-02-28T06:06:21;1.70;97.30
78184;DHT22;67442;44.570;18.610;2023-02-28T06:08:48;1.80;97.20
78184;DHT22;67442;44.570;18.610;2023-02-28T06:11:15;1.90;97.00
78184;DHT22;67442;44.570;18.610;2023-02-28T06:13:42;1.90;96.80
78184;DHT22;67442;44.570;18.610;2023-02-28T06:16:11;2.00;96.60
78184;DHT22;67442;44.570;18.610;2023-02-28T06:18:38;2.10;96.30
78184;DHT22;67442;44.570;18.610;2023-02-28T06:21:06;2.00;96.20
78184;DHT22;67442;44.570;18.610;2023-02-28T06:23:33;2.10;96.20
78184;DHT22;67442;44.570;18.610;2023-02-28T06:26:00;2.10;96.00
78184;DHT22;67442;44.570;18.610;2023-02-28T06:28:28;2.20;96.10
78184;DHT22;67442;44.570;18.610;2023-02-28T06:30:55;2.20;95.80
78184;DHT22;67442;44.570;18.610;2023-02-28T06:33:23;2.30;95.50
78184;DHT22;67442;44.570;18.610;2023-02-28T06:35:51;2.40;95.30
78184;DHT22;67442;44.570;18.610;2023-02-28T06:38:18;2.40;95.00
78184;DHT22;67442;44.570;18.610;2023-02-28T06:40:52;2.50;95.00
78184;DHT22;67442;44.570;18.610;2023-02-28T06:43:19;2.50;94.80
78184;DHT22;67442;44.570;18.610;2023-02-28T06:45:46;2.40;95.00
78184;DHT22;67442;44.570;18.610;2023-02-28T06:48:16;2.50;94.90
78184;DHT22;67442;44.570;18.610;2023-02-28T06:50:44;2.40;95.10
78184;DHT22;67442;44.570;18.610;2023-02-28T06:53:11;2.40;95.30
78184;DHT22;67442;44.570;18.610;2023-02-28T06:55:39;2.40;95.30
78184;DHT22;67442;44.570;18.610;2023-02-28T06:58:06;2.30;95.40
78184;DHT22;67442;44.570;18.610;2023-02-28T07:00:53;2.40;95.20
78184;DHT22;67442;44.570;18.610;2023-02-28T07:03:20;2.50;94.90
78184;DHT22;67442;44.570;18.610;2023-02-28T07:05:52;2.60;94.90
78184;DHT22;67442;44.570;18.610;2023-02-28T07:08:19;2.70;94.50
78184;DHT22;67442;44.570;18.610;2023-02-28T07:10:46;2.80;94.30
78184;DHT22;67442;44.570;18.610;2023-02-28T07:13:18;3.00;94.30
78184;DHT22;67442;44.570;18.610;2023-02-28T07:15:52;3.30;93.90
78184;DHT22;67442;44.570;18.610;2023-02-28T07:18:19;3.50;93.40
78184;DHT22;67442;44.570;18.610;2023-02-28T07:20:46;3.80;92.70
78184;DHT22;67442;44.570;18.610;2023-02-28T07:23:14;4.00;92.30
78184;DHT22;67442;44.570;18.610;2023-02-28T07:25:41;4.30;92.00
78184;DHT22;67442;44.570;18.610;2023-02-28T07:28:13;4.70;91.50
78184;DHT22;67442;44.570;18.610;2023-02-28T07:30:40;5.20;91.10
78184;DHT22;67442;44.570;18.610;2023-02-28T07:33:07;5.60;89.70
78184;DHT22;67442;44.570;18.610;2023-02-28T07:35:35;5.80;86.80
78184;DHT22;67442;44.570;18.610;2023-02-28T07:38:04;6.00;86.10
78184;DHT22;67442;44.570;18.610;2023-02-28T07:40:39;6.20;84.00
78184;DHT22;67442;44.570;18.610;2023-02-28T07:43:10;6.50;83.20
78184;DHT22;67442;44.570;18.610;2023-02-28T07:45:38;6.60;82.10
78184;DHT22;67442;44.570;18.610;2023-02-28T07:48:05;6.60;81.10
78184;DHT22;67442;44.570;18.610;2023-02-28T07:50:33;6.20;81.20
78184;DHT22;67442;44.570;18.610;2023-02-28T07:53:00;6.00;82.30
78184;DHT22;67442;44.570;18.610;2023-02-28T07:55:27;5.60;84.20
78184;DHT22;67442;44.570;18.610;2023-02-28T07:57:53;5.30;85.20
78184;DHT22;67442;44.570;18.610;2023-02-28T08:00:21;5.40;86.00
78184;DHT22;67442;44.570;18.610;2023-02-28T08:02:49;5.30;84.30
78184;DHT22;67442;44.570;18.610;2023-02-28T08:05:17;5.20;84.20
78184;DHT22;67442;44.570;18.610;2023-02-28T08:07:44;5.10;86.40
78184;DHT22;67442;44.570;18.610;2023-02-28T08:10:12;5.40;85.70
78184;DHT22;67442;44.570;18.610;2023-02-28T08:12:39;5.70;83.80
78184;DHT22;67442;44.570;18.610;2023-02-28T08:15:08;5.50;82.70
78184;DHT22;67442;44.570;18.610;2023-02-28T08:17:37;5.30;82.30
78184;DHT22;67442;44.570;18.610;2023-02-28T08:20:03;5.20;83.40
78184;DHT22;67442;44.570;18.610;2023-02-28T08:22:31;5.20;82.80
78184;DHT22;67442;44.570;18.610;2023-02-28T08:24:59;5.20;82.30
78184;DHT22;67442;44.570;18.610;2023-02-28T08:27:26;5.30;81.60
78184;DHT22;67442;44.570;18.610;2023-02-28T08:29:54;5.50;81.60
78184;DHT22;67442;44.570;18.610;2023-02-28T08:32:25;5.90;82.40
78184;DHT22;67442;44.570;18.610;2023-02-28T08:34:52;6.30;79.10
78184;DHT22;67442;44.570;18.610;2023-02-28T08:37:20;6.50;77.60
78184;DHT22;67442;44.570;18.610;2023-02-28T08:39:47;6.70;78.00
78184;DHT22;67442;44.570;18.610;2023-02-28T08:42:14;6.70;78.30
78184;DHT22;67442;44.570;18.610;2023-02-28T08:44:41;6.70;78.50
78184;DHT22;67442;44.570;18.610;2023-02-28T08:47:09;6.50;77.30
78184;DHT22;67442;44.570;18.610;2023-02-28T08:49:39;6.30;78.70
78184;DHT22;67442;44.570;18.610;2023-02-28T08:52:07;6.20;79.80
78184;DHT22;67442;44.570;18.610;2023-02-28T08:54:35;6.10;80.50
78184;DHT22;67442;44.570;18.610;2023-02-28T08:57:03;5.90;80.30
78184;DHT22;67442;44.570;18.610;2023-02-28T08:59:29;5.90;81.00
78184;DHT22;67442;44.570;18.610;2023-02-28T09:01:56;5.80;81.40
78184;DHT22;67442;44.570;18.610;2023-02-28T09:04:27;6.00;81.70
78184;DHT22;67442;44.570;18.610;2023-02-28T09:06:57;6.00;81.00
78184;DHT22;67442;44.570;18.610;2023-02-28T09:09:24;6.00;80.00
78184;DHT22;67442;44.570;18.610;2023-02-28T09:11:52;5.80;79.70
78184;DHT22;67442;44.570;18.610;2023-02-28T09:14:19;5.70;81.90
78184;DHT22;67442;44.570;18.610;2023-02-28T09:16:46;5.70;82.50
78184;DHT22;67442;44.570;18.610;2023-02-28T09:19:13;5.60;83.30
78184;DHT22;67442;44.570;18.610;2023-02-28T09:21:40;5.50;83.10
78184;DHT22;67442;44.570;18.610;2023-02-28T09:24:08;5.30;83.40
78184;DHT22;67442;44.570;18.610;2023-02-28T09:26:35;5.20;85.20
78184;DHT22;67442;44.570;18.610;2023-02-28T09:29:03;5.00;85.50
78184;DHT22;67442;44.570;18.610;2023-02-28T09:31:31;5.00;86.20
78184;DHT22;67442;44.570;18.610;2023-02-28T09:33:58;5.10;85.70
78184;DHT22;67442;44.570;18.610;2023-02-28T09:36:26;5.20;85.10
78184;DHT22;67442;44.570;18.610;2023-02-28T09:38:54;5.50;83.40
78184;DHT22;67442;44.570;18.610;2023-02-28T09:41:26;5.90;82.70
78184;DHT22;67442;44.570;18.610;2023-02-28T09:43:59;6.30;80.40
78184;DHT22;67442;44.570;18.610;2023-02-28T09:46:36;6.80;81.60
78184;DHT22;67442;44.570;18.610;2023-02-28T09:49:10;7.00;76.70
78184;DHT22;67442;44.570;18.610;2023-02-28T09:51:44;7.30;74.70
78184;DHT22;67442;44.570;18.610;2023-02-28T09:54:22;7.50;74.20
78184;DHT22;67442;44.570;18.610;2023-02-28T09:56:57;7.60;73.10
78184;DHT22;67442;44.570;18.610;2023-02-28T10:02:41;7.60;72.20
78184;DHT22;67442;44.570;18.610;2023-02-28T10:05:31;7.60;72.70
78184;DHT22;67442;44.570;18.610;2023-02-28T10:10:29;7.30;75.30
78184;DHT22;67442;44.570;18.610;2023-02-28T10:13:01;7.10;74.00
78184;DHT22;67442;44.570;18.610;2023-02-28T10:15:31;6.90;75.00
78184;DHT22;67442;44.570;18.610;2023-02-28T10:18:03;6.80;74.40
78184;DHT22;67442;44.570;18.610;2023-02-28T10:20:33;6.70;75.70
78184;DHT22;67442;44.570;18.610;2023-02-28T10:23:21;6.70;75.50
78184;DHT22;67442;44.570;18.610;2023-02-28T10:26:00;6.70;76.30
78184;DHT22;67442;44.570;18.610;2023-02-28T10:28:29;6.80;75.30
78184;DHT22;67442;44.570;18.610;2023-02-28T10:30:57;6.70;76.00
78184;DHT22;67442;44.570;18.610;2023-02-28T10:33:35;6.60;75.40
78184;DHT22;67442;44.570;18.610;2023-02-28T10:36:08;6.50;76.00
78184;DHT22;67442;44.570;18.610;2023-02-28T10:38:39;6.50;77.60
78184;DHT22;67442;44.570;18.610;2023-02-28T10:41:14;6.60;77.90
78184;DHT22;67442;44.570;18.610;2023-02-28T10:43:42;6.60;77.10
78184;DHT22;67442;44.570;18.610;2023-02-28T10:48:47;6.60;77.30
78184;DHT22;67442;44.570;18.610;2023-02-28T10:51:18;6.60;76.20
78184;DHT22;67442;44.570;18.610;2023-02-28T10:53:49;6.50;76.80
78184;DHT22;67442;44.570;18.610;2023-02-28T10:56:25;6.40;77.10
78184;DHT22;67442;44.570;18.610;2023-02-28T11:03:48;6.20;77.70
78184;DHT22;67442;44.570;18.610;2023-02-28T11:08:54;6.00;78.80
78184;DHT22;67442;44.570;18.610;2023-02-28T11:11:24;6.00;78.20
78184;DHT22;67442;44.570;18.610;2023-02-28T11:14:04;6.00;79.20
78184;DHT22;67442;44.570;18.610;2023-02-28T11:16:35;6.00;79.90
78184;DHT22;67442;44.570;18.610;2023-02-28T11:19:18;6.10;79.60
78184;DHT22;67442;44.570;18.610;2023-02-28T11:21:59;6.00;79.60
78184;DHT22;67442;44.570;18.610;2023-02-28T11:24:52;6.00;80.70
78184;DHT22;67442;44.570;18.610;2023-02-28T11:28:06;6.00;80.80
78184;DHT22;67442;44.570;18.610;2023-02-28T11:30:40;5.90;81.60
78184;DHT22;67442;44.570;18.610;2023-02-28T11:36:31;5.70;81.90
78184;DHT22;67442;44.570;18.610;2023-02-28T11:39:01;5.70;82.10
78184;DHT22;67442;44.570;18.610;2023-02-28T11:47:00;5.70;81.70
78184;DHT22;67442;44.570;18.610;2023-02-28T11:49:49;5.90;81.20
78184;DHT22;67442;44.570;18.610;2023-02-28T11:55:39;5.90;81.10
78184;DHT22;67442;44.570;18.610;2023-02-28T12:05:46;6.50;77.20
78184;DHT22;67442;44.570;18.610;2023-02-28T12:27:19;5.90;80.40
78184;DHT22;67442;44.570;18.610;2023-02-28T12:30:24;5.60;82.70
78184;DHT22;67442;44.570;18.610;2023-02-28T12:35:33;4.80;86.80
78184;DHT22;67442;44.570;18.610;2023-02-28T12:41:16;4.40;89.40
78184;DHT22;67442;44.570;18.610;2023-02-28T12:43:55;4.30;90.00
78184;DHT22;67442;44.570;18.610;2023-02-28T12:46:41;4.20;90.20
78184;DHT22;67442;44.570;18.610;2023-02-28T12:49:13;4.10;90.50
78184;DHT22;67442;44.570;18.610;2023-02-28T12:51:43;4.00;90.80
78184;DHT22;67442;44.570;18.610;2023-02-28T12:54:28;4.00;91.00
78184;DHT22;67442;44.570;18.610;2023-02-28T12:57:33;4.00;90.90
78184;DHT22;67442;44.570;18.610;2023-02-28T13:00:05;3.90;91.30
78184;DHT22;67442;44.570;18.610;2023-02-28T13:11:00;3.90;91.50
78184;DHT22;67442;44.570;18.610;2023-02-28T13:13:32;3.80;91.50
78184;DHT22;67442;44.570;18.610;2023-02-28T13:16:07;3.80;91.90
78184;DHT22;67442;44.570;18.610;2023-02-28T13:18:44;3.80;93.30
78184;DHT22;67442;44.570;18.610;2023-02-28T13:21:29;3.80;94.90
78184;DHT22;67442;44.570;18.610;2023-02-28T13:24:00;3.90;95.30
78184;DHT22;67442;44.570;18.610;2023-02-28T13:39:48;3.80;91.90
78184;DHT22;67442;44.570;18.610;2023-02-28T13:45:19;3.80;91.70
78184;DHT22;67442;44.570;18.610;2023-02-28T13:48:02;3.70;91.90
78184;DHT22;67442;44.570;18.610;2023-02-28T13:50:38;3.70;92.00
78184;DHT22;67442;44.570;18.610;2023-02-28T13:53:39;3.80;92.10
78184;DHT22;67442;44.570;18.610;2023-02-28T13:59:03;3.70;91.90
78184;DHT22;67442;44.570;18.610;2023-02-28T14:02:03;3.90;91.70
78184;DHT22;67442;44.570;18.610;2023-02-28T14:07:19;3.90;91.70
78184;DHT22;67442;44.570;18.610;2023-02-28T14:10:15;3.80;91.60
78184;DHT22;67442;44.570;18.610;2023-02-28T14:12:59;3.80;91.70
78184;DHT22;67442;44.570;18.610;2023-02-28T14:15:49;3.70;91.60
78184;DHT22;67442;44.570;18.610;2023-02-28T14:18:36;3.70;91.80
78184;DHT22;67442;44.570;18.610;2023-02-28T14:21:16;3.60;92.00
78184;DHT22;67442;44.570;18.610;2023-02-28T14:29:37;3.40;92.40
78184;DHT22;67442;44.570;18.610;2023-02-28T14:37:49;3.00;93.10
78184;DHT22;67442;44.570;18.610;2023-02-28T14:40:30;3.10;93.30
78184;DHT22;67442;44.570;18.610;2023-02-28T14:42:59;3.10;93.30
78184;DHT22;67442;44.570;18.610;2023-02-28T14:45:30;3.10;93.20
78184;DHT22;67442;44.570;18.610;2023-02-28T14:47:58;3.10;93.70
78184;DHT22;67442;44.570;18.610;2023-02-28T14:50:36;3.20;93.10
78184;DHT22;67442;44.570;18.610;2023-02-28T14:53:04;3.30;92.90
78184;DHT22;67442;44.570;18.610;2023-02-28T14:55:35;3.30;92.80
78184;DHT22;67442;44.570;18.610;2023-02-28T14:58:06;3.30;92.90
78184;DHT22;67442;44.570;18.610;2023-02-28T15:00:50;3.30;93.00
78184;DHT22;67442;44.570;18.610;2023-02-28T15:03:31;3.30;92.80
78184;DHT22;67442;44.570;18.610;2023-02-28T15:08:30;3.20;93.00
78184;DHT22;67442;44.570;18.610;2023-02-28T15:11:12;3.20;92.70
78184;DHT22;67442;44.570;18.610;2023-02-28T15:13:44;3.00;93.10
78184;DHT22;67442;44.570;18.610;2023-02-28T15:16:18;3.00;93.10
78184;DHT22;67442;44.570;18.610;2023-02-28T15:19:02;3.00;93.30
78184;DHT22;67442;44.570;18.610;2023-02-28T15:21:34;3.00;93.10
78184;DHT22;67442;44.570;18.610;2023-02-28T15:24:10;3.00;93.10
78184;DHT22;67442;44.570;18.610;2023-02-28T15:26:43;3.00;93.40
78184;DHT22;67442;44.570;18.610;2023-02-28T15:29:17;2.90;93.60
78184;DHT22;67442;44.570;18.610;2023-02-28T15:31:51;2.80;93.70
78184;DHT22;67442;44.570;18.610;2023-02-28T15:34:27;2.80;93.90
78184;DHT22;67442;44.570;18.610;2023-02-28T15:36:54;2.80;94.00
78184;DHT22;67442;44.570;18.610;2023-02-28T15:39:27;2.70;93.90
78184;DHT22;67442;44.570;18.610;2023-02-28T15:42:19;2.60;94.20
78184;DHT22;67442;44.570;18.610;2023-02-28T15:44:47;2.60;94.20
78184;DHT22;67442;44.570;18.610;2023-02-28T15:47:20;2.60;94.30
78184;DHT22;67442;44.570;18.610;2023-02-28T15:49:49;2.60;93.60
78184;DHT22;67442;44.570;18.610;2023-02-28T15:52:28;2.60;93.80
78184;DHT22;67442;44.570;18.610;2023-02-28T15:54:58;2.50;94.00
78184;DHT22;67442;44.570;18.610;2023-02-28T15:57:28;2.50;94.40
78184;DHT22;67442;44.570;18.610;2023-02-28T16:00:02;2.60;94.10
78184;DHT22;67442;44.570;18.610;2023-02-28T16:02:36;2.50;94.20
78184;DHT22;67442;44.570;18.610;2023-02-28T16:07:38;2.40;94.50
78184;DHT22;67442;44.570;18.610;2023-02-28T16:10:06;2.40;94.50
78184;DHT22;67442;44.570;18.610;2023-02-28T16:12:35;2.40;94.70
78184;DHT22;67442;44.570;18.610;2023-02-28T16:17:57;2.50;94.70
78184;DHT22;67442;44.570;18.610;2023-02-28T16:20:30;2.40;94.40
78184;DHT22;67442;44.570;18.610;2023-02-28T16:22:58;2.40;94.60
78184;DHT22;67442;44.570;18.610;2023-02-28T16:25:42;2.40;94.40
78184;DHT22;67442;44.570;18.610;2023-02-28T16:28:24;2.50;94.80
78184;DHT22;67442;44.570;18.610;2023-02-28T16:30:55;2.50;95.20
78184;DHT22;67442;44.570;18.610;2023-02-28T16:33:26;2.40;94.90
78184;DHT22;67442;44.570;18.610;2023-02-28T16:35:54;2.30;95.00
78184;DHT22;67442;44.570;18.610;2023-02-28T16:38:20;2.30;95.00
78184;DHT22;67442;44.570;18.610;2023-02-28T16:40:50;2.20;95.30
78184;DHT22;67442;44.570;18.610;2023-02-28T16:43:23;2.20;95.60
78184;DHT22;67442;44.570;18.610;2023-02-28T16:45:56;2.20;95.90
78184;DHT22;67442;44.570;18.610;2023-02-28T16:48:24;2.30;96.10
78184;DHT22;67442;44.570;18.610;2023-02-28T16:50:55;2.20;96.10
78184;DHT22;67442;44.570;18.610;2023-02-28T16:53:22;2.30;96.00
78184;DHT22;67442;44.570;18.610;2023-02-28T16:55:54;2.30;95.70
78184;DHT22;67442;44.570;18.610;2023-02-28T16:58:21;2.40;95.80
78184;DHT22;67442;44.570;18.610;2023-02-28T17:01:02;2.30;96.10
78184;DHT22;67442;44.570;18.610;2023-02-28T17:03:29;2.30;96.20
78184;DHT22;67442;44.570;18.610;2023-02-28T17:05:57;2.20;96.30
78184;DHT22;67442;44.570;18.610;2023-02-28T17:08:24;2.30;96.00
78184;DHT22;67442;44.570;18.610;2023-02-28T17:10:51;2.20;96.00
78184;DHT22;67442;44.570;18.610;2023-02-28T17:13:18;2.20;96.40
78184;DHT22;67442;44.570;18.610;2023-02-28T17:15:46;2.20;96.70
78184;DHT22;67442;44.570;18.610;2023-02-28T17:18:18;2.10;96.80
78184;DHT22;67442;44.570;18.610;2023-02-28T17:20:46;2.10;96.90
78184;DHT22;67442;44.570;18.610;2023-02-28T17:23:13;2.10;97.10
78184;DHT22;67442;44.570;18.610;2023-02-28T17:25:44;2.10;97.40
78184;DHT22;67442;44.570;18.610;2023-02-28T17:28:21;2.10;97.40
78184;DHT22;67442;44.570;18.610;2023-02-28T17:30:49;2.20;97.50
78184;DHT22;67442;44.570;18.610;2023-02-28T17:33:21;2.10;97.70
78184;DHT22;67442;44.570;18.610;2023-02-28T17:35:51;2.20;97.70
78184;DHT22;67442;44.570;18.610;2023-02-28T17:38:22;2.20;97.80
78184;DHT22;67442;44.570;18.610;2023-02-28T17:40:50;2.20;97.70
78184;DHT22;67442;44.570;18.610;2023-02-28T17:43:17;2.10;97.40
78184;DHT22;67442;44.570;18.610;2023-02-28T17:45:48;2.20;96.90
78184;DHT22;67442;44.570;18.610;2023-02-28T17:48:15;2.30;96.50
78184;DHT22;67442;44.570;18.610;2023-02-28T17:50:43;2.40;96.60
78184;DHT22;67442;44.570;18.610;2023-02-28T17:53:10;2.30;96.80
78184;DHT22;67442;44.570;18.610;2023-02-28T17:55:37;2.30;96.80
78184;DHT22;67442;44.570;18.610;2023-02-28T17:58:05;2.20;96.80
78184;DHT22;67442;44.570;18.610;2023-02-28T18:00:36;2.20;97.10
78184;DHT22;67442;44.570;18.610;2023-02-28T18:03:04;2.20;97.40
78184;DHT22;67442;44.570;18.610;2023-02-28T18:05:32;2.20;97.80
78184;DHT22;67442;44.570;18.610;2023-02-28T18:07:59;2.20;98.30
78184;DHT22;67442;44.570;18.610;2023-02-28T18:10:30;2.30;98.30
78184;DHT22;67442;44.570;18.610;2023-02-28T18:13:00;2.20;98.00
78184;DHT22;67442;44.570;18.610;2023-02-28T18:15:27;2.20;98.10
78184;DHT22;67442;44.570;18.610;2023-02-28T18:17:54;2.20;97.90
78184;DHT22;67442;44.570;18.610;2023-02-28T18:20:22;2.10;98.00
78184;DHT22;67442;44.570;18.610;2023-02-28T18:22:53;2.10;98.40
78184;DHT22;67442;44.570;18.610;2023-02-28T18:25:20;2.20;98.20
78184;DHT22;67442;44.570;18.610;2023-02-28T18:27:48;2.20;98.30
78184;DHT22;67442;44.570;18.610;2023-02-28T18:30:27;2.30;98.40